sensor_id;sensor_type;location;lat;lon;timestamp;P1;durP1;ratioP1;P2;durP2;ratioP2
46439;SDS011;32138;50.966;6.968;2023-09-07T00:00:58;9.23;;;6.75;;
46439;SDS011;32138;50.966;6.968;2023-09-07T00:02:34;10.80;;;6.72;;
46439;SDS011;32138;50.966;6.968;2023-09-07T00:04:05;10.57;;;6.90;;
46439;SDS011;32138;50.966;6.968;2023-09-07T00:05:36;10.85;;;7.68;;
46439;SDS011;32138;50.966;6.968;2023-09-07T00:07:07;11.38;;;7.00;;
46439;SDS011;32138;50.966;6.968;2023-09-07T00:08:37;8.88;;;6.53;;
46439;SDS011;32138;50.966;6.968;2023-09-07T00:10:08;9.18;;;7.05;;
46439;SDS011;32138;50.966;6.968;2023-09-07T00:11:39;7.30;;;6.55;;
46439;SDS011;32138;50.966;6.968;2023-09-07T00:13:10;8.35;;;6.53;;
46439;SDS011;32138;50.966;6.968;2023-09-07T00:14:41;9.32;;;6.75;;
46439;SDS011;32138;50.966;6.968;2023-09-07T00:16:11;7.57;;;5.85;;
46439;SDS011;32138;50.966;6.968;2023-09-07T00:17:42;9.43;;;7.03;;
46439;SDS011;32138;50.966;6.968;2023-09-07T00:19:13;8.45;;;6.60;;
46439;SDS011;32138;50.966;6.968;2023-09-07T00:20:43;10.07;;;7.25;;
46439;SDS011;32138;50.966;6.968;2023-09-07T00:22:14;7.82;;;6.78;;
46439;SDS011;32138;50.966;6.968;2023-09-07T00:23:46;8.18;;;6.43;;
46439;SDS011;32138;50.966;6.968;2023-09-07T00:25:17;10.93;;;6.45;;
46439;SDS011;32138;50.966;6.968;2023-09-07T00:26:48;10.75;;;6.28;;
46439;SDS011;32138;50.966;6.968;2023-09-07T00:28:18;7.15;;;6.30;;
46439;SDS011;32138;50.966;6.968;2023-09-07T00:29:49;8.88;;;6.45;;
46439;SDS011;32138;50.966;6.968;2023-09-07T00:31:20;9.00;;;7.00;;
46439;SDS011;32138;50.966;6.968;2023-09-07T00:32:51;7.90;;;6.63;;
46439;SDS011;32138;50.966;6.968;2023-09-07T00:34:21;9.70;;;7.78;;
46439;SDS011;32138;50.966;6.968;2023-09-07T00:35:52;7.45;;;6.63;;
46439;SDS011;32138;50.966;6.968;2023-09-07T00:37:23;8.60;;;6.45;;
46439;SDS011;32138;50.966;6.968;2023-09-07T00:38:53;7.40;;;5.80;;
46439;SDS011;32138;50.966;6.968;2023-09-07T00:40:24;7.60;;;5.60;;
46439;SDS011;32138;50.966;6.968;2023-09-07T00:41:56;8.98;;;5.80;;
46439;SDS011;32138;50.966;6.968;2023-09-07T00:43:27;8.02;;;5.57;;
46439;SDS011;32138;50.966;6.968;2023-09-07T00:44:57;9.07;;;5.13;;
46439;SDS011;32138;50.966;6.968;2023-09-07T00:46:28;6.38;;;4.47;;
46439;SDS011;32138;50.966;6.968;2023-09-07T00:47:59;8.90;;;5.03;;
46439;SDS011;32138;50.966;6.968;2023-09-07T00:49:29;6.35;;;4.78;;
46439;SDS011;32138;50.966;6.968;2023-09-07T00:51:00;7.20;;;5.25;;
46439;SDS011;32138;50.966;6.968;2023-09-07T00:52:32;8.18;;;5.53;;
46439;SDS011;32138;50.966;6.968;2023-09-07T00:54:04;9.20;;;6.38;;
46439;SDS011;32138;50.966;6.968;2023-09-07T00:55:35;8.57;;;6.30;;
46439;SDS011;32138;50.966;6.968;2023-09-07T00:57:06;8.70;;;6.70;;
46439;SDS011;32138;50.966;6.968;2023-09-07T00:58:37;7.38;;;5.75;;
46439;SDS011;32138;50.966;6.968;2023-09-07T01:00:08;8.48;;;5.60;;
46439;SDS011;32138;50.966;6.968;2023-09-07T01:01:40;7.72;;;5.68;;
46439;SDS011;32138;50.966;6.968;2023-09-07T01:03:13;8.57;;;6.45;;
46439;SDS011;32138;50.966;6.968;2023-09-07T01:04:44;7.43;;;6.20;;
46439;SDS011;32138;50.966;6.968;2023-09-07T01:06:20;8.88;;;5.65;;
46439;SDS011;32138;50.966;6.968;2023-09-07T01:08:35;6.72;;;4.78;;
46439;SDS011;32138;50.966;6.968;2023-09-07T01:10:03;6.95;;;5.30;;
46439;SDS011;32138;50.966;6.968;2023-09-07T01:11:37;7.85;;;5.13;;
46439;SDS011;32138;50.966;6.968;2023-09-07T01:13:08;7.88;;;5.20;;
46439;SDS011;32138;50.966;6.968;2023-09-07T01:14:39;7.50;;;5.22;;
46439;SDS011;32138;50.966;6.968;2023-09-07T01:16:10;7.13;;;4.80;;
46439;SDS011;32138;50.966;6.968;2023-09-07T01:17:42;9.63;;;5.20;;
46439;SDS011;32138;50.966;6.968;2023-09-07T01:19:14;9.38;;;4.82;;
46439;SDS011;32138;50.966;6.968;2023-09-07T01:20:45;7.07;;;5.03;;
46439;SDS011;32138;50.966;6.968;2023-09-07T01:22:20;6.97;;;4.90;;
46439;SDS011;32138;50.966;6.968;2023-09-07T01:23:52;8.00;;;4.78;;
46439;SDS011;32138;50.966;6.968;2023-09-07T01:25:24;6.78;;;4.68;;
46439;SDS011;32138;50.966;6.968;2023-09-07T01:26:55;6.28;;;4.55;;
46439;SDS011;32138;50.966;6.968;2023-09-07T01:28:29;5.78;;;4.40;;
46439;SDS011;32138;50.966;6.968;2023-09-07T01:30:01;5.63;;;4.63;;
46439;SDS011;32138;50.966;6.968;2023-09-07T01:31:38;8.10;;;4.72;;
46439;SDS011;32138;50.966;6.968;2023-09-07T01:33:09;11.27;;;5.20;;
46439;SDS011;32138;50.966;6.968;2023-09-07T01:34:40;6.32;;;4.40;;
46439;SDS011;32138;50.966;6.968;2023-09-07T01:36:10;5.97;;;4.78;;
46439;SDS011;32138;50.966;6.968;2023-09-07T01:37:41;5.25;;;4.22;;
46439;SDS011;32138;50.966;6.968;2023-09-07T01:39:12;7.35;;;4.82;;
46439;SDS011;32138;50.966;6.968;2023-09-07T01:40:43;10.35;;;5.38;;
46439;SDS011;32138;50.966;6.968;2023-09-07T01:42:13;6.13;;;4.47;;
46439;SDS011;32138;50.966;6.968;2023-09-07T01:43:44;8.68;;;5.32;;
46439;SDS011;32138;50.966;6.968;2023-09-07T01:45:15;11.13;;;5.15;;
46439;SDS011;32138;50.966;6.968;2023-09-07T01:46:46;7.32;;;5.07;;
46439;SDS011;32138;50.966;6.968;2023-09-07T01:48:16;8.05;;;4.95;;
46439;SDS011;32138;50.966;6.968;2023-09-07T01:49:47;6.13;;;4.82;;
46439;SDS011;32138;50.966;6.968;2023-09-07T01:51:18;5.10;;;4.07;;
46439;SDS011;32138;50.966;6.968;2023-09-07T01:52:49;7.25;;;5.18;;
46439;SDS011;32138;50.966;6.968;2023-09-07T01:54:21;10.60;;;5.45;;
46439;SDS011;32138;50.966;6.968;2023-09-07T01:55:53;6.05;;;4.43;;
46439;SDS011;32138;50.966;6.968;2023-09-07T01:57:25;5.72;;;4.25;;
46439;SDS011;32138;50.966;6.968;2023-09-07T01:58:56;5.55;;;4.53;;
46439;SDS011;32138;50.966;6.968;2023-09-07T02:00:27;5.35;;;4.80;;
46439;SDS011;32138;50.966;6.968;2023-09-07T02:01:58;7.43;;;4.47;;
46439;SDS011;32138;50.966;6.968;2023-09-07T02:03:28;6.78;;;4.53;;
46439;SDS011;32138;50.966;6.968;2023-09-07T02:04:59;5.35;;;4.53;;
46439;SDS011;32138;50.966;6.968;2023-09-07T02:06:30;6.75;;;4.55;;
46439;SDS011;32138;50.966;6.968;2023-09-07T02:08:01;7.03;;;4.68;;
46439;SDS011;32138;50.966;6.968;2023-09-07T02:09:32;5.97;;;4.55;;
46439;SDS011;32138;50.966;6.968;2023-09-07T02:11:02;7.55;;;5.57;;
46439;SDS011;32138;50.966;6.968;2023-09-07T02:12:36;7.10;;;5.10;;
46439;SDS011;32138;50.966;6.968;2023-09-07T02:14:06;7.32;;;4.80;;
46439;SDS011;32138;50.966;6.968;2023-09-07T02:15:38;7.32;;;4.75;;
46439;SDS011;32138;50.966;6.968;2023-09-07T02:17:10;8.90;;;4.82;;
46439;SDS011;32138;50.966;6.968;2023-09-07T02:18:44;6.20;;;4.75;;
46439;SDS011;32138;50.966;6.968;2023-09-07T02:20:16;6.40;;;4.85;;
46439;SDS011;32138;50.966;6.968;2023-09-07T02:21:48;7.90;;;5.47;;
46439;SDS011;32138;50.966;6.968;2023-09-07T02:23:21;6.97;;;4.55;;
46439;SDS011;32138;50.966;6.968;2023-09-07T02:24:52;8.43;;;4.88;;
46439;SDS011;32138;50.966;6.968;2023-09-07T02:26:23;8.10;;;4.95;;
46439;SDS011;32138;50.966;6.968;2023-09-07T02:27:53;5.70;;;4.95;;
46439;SDS011;32138;50.966;6.968;2023-09-07T02:29:24;7.15;;;5.53;;
46439;SDS011;32138;50.966;6.968;2023-09-07T02:31:02;9.15;;;4.65;;
46439;SDS011;32138;50.966;6.968;2023-09-07T02:32:33;5.85;;;4.72;;
46439;SDS011;32138;50.966;6.968;2023-09-07T02:34:04;7.95;;;5.25;;
46439;SDS011;32138;50.966;6.968;2023-09-07T02:35:38;7.38;;;4.40;;
46439;SDS011;32138;50.966;6.968;2023-09-07T02:37:09;7.70;;;4.70;;
46439;SDS011;32138;50.966;6.968;2023-09-07T02:38:39;9.93;;;5.45;;
46439;SDS011;32138;50.966;6.968;2023-09-07T02:40:10;6.82;;;5.07;;
46439;SDS011;32138;50.966;6.968;2023-09-07T02:41:41;5.28;;;4.22;;
46439;SDS011;32138;50.966;6.968;2023-09-07T02:43:12;9.45;;;4.80;;
46439;SDS011;32138;50.966;6.968;2023-09-07T02:44:43;7.72;;;4.78;;
46439;SDS011;32138;50.966;6.968;2023-09-07T02:46:14;8.55;;;5.28;;
46439;SDS011;32138;50.966;6.968;2023-09-07T02:47:44;7.40;;;5.13;;
46439;SDS011;32138;50.966;6.968;2023-09-07T02:49:16;8.52;;;5.38;;
46439;SDS011;32138;50.966;6.968;2023-09-07T02:50:47;8.35;;;4.88;;
46439;SDS011;32138;50.966;6.968;2023-09-07T02:52:20;6.68;;;4.90;;
46439;SDS011;32138;50.966;6.968;2023-09-07T02:53:51;8.57;;;5.53;;
46439;SDS011;32138;50.966;6.968;2023-09-07T02:55:23;7.43;;;5.45;;
46439;SDS011;32138;50.966;6.968;2023-09-07T02:56:54;8.05;;;4.75;;
46439;SDS011;32138;50.966;6.968;2023-09-07T02:58:25;7.53;;;5.13;;
46439;SDS011;32138;50.966;6.968;2023-09-07T02:59:55;6.68;;;5.60;;
46439;SDS011;32138;50.966;6.968;2023-09-07T03:01:26;6.20;;;4.85;;
46439;SDS011;32138;50.966;6.968;2023-09-07T03:02:57;8.07;;;5.22;;
46439;SDS011;32138;50.966;6.968;2023-09-07T03:04:28;5.63;;;4.78;;
46439;SDS011;32138;50.966;6.968;2023-09-07T03:06:07;8.57;;;4.72;;
46439;SDS011;32138;50.966;6.968;2023-09-07T03:07:44;6.60;;;5.20;;
46439;SDS011;32138;50.966;6.968;2023-09-07T03:09:15;7.25;;;4.95;;
46439;SDS011;32138;50.966;6.968;2023-09-07T03:10:46;10.98;;;6.22;;
46439;SDS011;32138;50.966;6.968;2023-09-07T03:12:17;7.60;;;5.53;;
46439;SDS011;32138;50.966;6.968;2023-09-07T03:13:48;7.25;;;5.40;;
46439;SDS011;32138;50.966;6.968;2023-09-07T03:15:18;7.40;;;5.15;;
46439;SDS011;32138;50.966;6.968;2023-09-07T03:16:49;9.35;;;5.38;;
46439;SDS011;32138;50.966;6.968;2023-09-07T03:18:20;7.53;;;5.13;;
46439;SDS011;32138;50.966;6.968;2023-09-07T03:19:51;7.65;;;5.03;;
46439;SDS011;32138;50.966;6.968;2023-09-07T03:21:21;6.65;;;4.93;;
46439;SDS011;32138;50.966;6.968;2023-09-07T03:22:55;9.88;;;5.40;;
46439;SDS011;32138;50.966;6.968;2023-09-07T03:24:26;8.85;;;5.65;;
46439;SDS011;32138;50.966;6.968;2023-09-07T03:25:58;9.20;;;5.75;;
46439;SDS011;32138;50.966;6.968;2023-09-07T03:27:29;5.85;;;4.85;;
46439;SDS011;32138;50.966;6.968;2023-09-07T03:29:00;8.32;;;4.97;;
46439;SDS011;32138;50.966;6.968;2023-09-07T03:30:31;7.38;;;5.32;;
46439;SDS011;32138;50.966;6.968;2023-09-07T03:32:02;8.50;;;5.65;;
46439;SDS011;32138;50.966;6.968;2023-09-07T03:33:33;7.07;;;5.38;;
46439;SDS011;32138;50.966;6.968;2023-09-07T03:35:04;6.50;;;4.68;;
46439;SDS011;32138;50.966;6.968;2023-09-07T03:36:39;7.43;;;5.30;;
46439;SDS011;32138;50.966;6.968;2023-09-07T03:38:10;7.28;;;5.07;;
46439;SDS011;32138;50.966;6.968;2023-09-07T03:39:40;7.40;;;5.15;;
46439;SDS011;32138;50.966;6.968;2023-09-07T03:41:11;8.05;;;5.50;;
46439;SDS011;32138;50.966;6.968;2023-09-07T03:42:42;7.20;;;5.00;;
46439;SDS011;32138;50.966;6.968;2023-09-07T03:44:15;8.57;;;5.00;;
46439;SDS011;32138;50.966;6.968;2023-09-07T03:45:46;7.07;;;4.97;;
46439;SDS011;32138;50.966;6.968;2023-09-07T03:47:17;8.13;;;5.28;;
46439;SDS011;32138;50.966;6.968;2023-09-07T03:48:48;8.85;;;5.38;;
46439;SDS011;32138;50.966;6.968;2023-09-07T03:50:18;8.13;;;5.13;;
46439;SDS011;32138;50.966;6.968;2023-09-07T03:51:49;7.75;;;5.53;;
46439;SDS011;32138;50.966;6.968;2023-09-07T03:53:20;7.82;;;5.30;;
46439;SDS011;32138;50.966;6.968;2023-09-07T03:54:51;9.45;;;6.85;;
46439;SDS011;32138;50.966;6.968;2023-09-07T03:56:24;8.68;;;5.43;;
46439;SDS011;32138;50.966;6.968;2023-09-07T03:57:54;12.27;;;5.95;;
46439;SDS011;32138;50.966;6.968;2023-09-07T03:59:27;6.00;;;5.13;;
46439;SDS011;32138;50.966;6.968;2023-09-07T04:01:01;8.13;;;5.65;;
46439;SDS011;32138;50.966;6.968;2023-09-07T04:02:31;8.75;;;5.68;;
46439;SDS011;32138;50.966;6.968;2023-09-07T04:04:02;9.13;;;5.80;;
46439;SDS011;32138;50.966;6.968;2023-09-07T04:05:33;8.45;;;5.57;;
46439;SDS011;32138;50.966;6.968;2023-09-07T04:07:04;7.60;;;5.45;;
46439;SDS011;32138;50.966;6.968;2023-09-07T04:08:35;10.70;;;6.18;;
46439;SDS011;32138;50.966;6.968;2023-09-07T04:10:06;6.93;;;5.28;;
46439;SDS011;32138;50.966;6.968;2023-09-07T04:11:37;12.50;;;6.00;;
46439;SDS011;32138;50.966;6.968;2023-09-07T04:13:07;7.85;;;6.10;;
46439;SDS011;32138;50.966;6.968;2023-09-07T04:14:38;8.15;;;5.60;;
46439;SDS011;32138;50.966;6.968;2023-09-07T04:16:10;8.48;;;5.68;;
46439;SDS011;32138;50.966;6.968;2023-09-07T04:17:40;6.32;;;5.60;;
46439;SDS011;32138;50.966;6.968;2023-09-07T04:19:11;8.50;;;5.82;;
46439;SDS011;32138;50.966;6.968;2023-09-07T04:20:42;8.85;;;6.05;;
46439;SDS011;32138;50.966;6.968;2023-09-07T04:22:13;8.60;;;5.57;;
46439;SDS011;32138;50.966;6.968;2023-09-07T04:23:44;9.52;;;5.63;;
46439;SDS011;32138;50.966;6.968;2023-09-07T04:25:15;8.15;;;6.10;;
46439;SDS011;32138;50.966;6.968;2023-09-07T04:26:47;8.55;;;5.07;;
46439;SDS011;32138;50.966;6.968;2023-09-07T04:28:19;7.15;;;5.80;;
46439;SDS011;32138;50.966;6.968;2023-09-07T04:29:49;7.45;;;5.32;;
46439;SDS011;32138;50.966;6.968;2023-09-07T04:31:20;6.88;;;5.38;;
46439;SDS011;32138;50.966;6.968;2023-09-07T04:32:51;7.65;;;5.40;;
46439;SDS011;32138;50.966;6.968;2023-09-07T04:34:23;9.23;;;5.35;;
46439;SDS011;32138;50.966;6.968;2023-09-07T04:35:54;10.65;;;5.82;;
46439;SDS011;32138;50.966;6.968;2023-09-07T04:37:24;7.65;;;5.28;;
46439;SDS011;32138;50.966;6.968;2023-09-07T04:38:55;7.07;;;5.70;;
46439;SDS011;32138;50.966;6.968;2023-09-07T04:40:27;8.35;;;5.20;;
46439;SDS011;32138;50.966;6.968;2023-09-07T04:41:58;6.60;;;5.32;;
46439;SDS011;32138;50.966;6.968;2023-09-07T04:43:29;9.23;;;5.15;;
46439;SDS011;32138;50.966;6.968;2023-09-07T04:44:59;6.25;;;4.88;;
46439;SDS011;32138;50.966;6.968;2023-09-07T04:46:30;7.97;;;4.85;;
46439;SDS011;32138;50.966;6.968;2023-09-07T04:48:01;6.35;;;5.00;;
46439;SDS011;32138;50.966;6.968;2023-09-07T04:49:32;8.52;;;5.03;;
46439;SDS011;32138;50.966;6.968;2023-09-07T04:51:04;11.57;;;5.18;;
46439;SDS011;32138;50.966;6.968;2023-09-07T04:52:36;10.65;;;5.00;;
46439;SDS011;32138;50.966;6.968;2023-09-07T04:54:06;12.35;;;5.22;;
46439;SDS011;32138;50.966;6.968;2023-09-07T04:55:37;6.30;;;4.55;;
46439;SDS011;32138;50.966;6.968;2023-09-07T04:57:08;6.95;;;5.28;;
46439;SDS011;32138;50.966;6.968;2023-09-07T04:58:39;6.65;;;5.13;;
46439;SDS011;32138;50.966;6.968;2023-09-07T05:00:10;7.05;;;5.38;;
46439;SDS011;32138;50.966;6.968;2023-09-07T05:01:41;6.57;;;5.13;;
46439;SDS011;32138;50.966;6.968;2023-09-07T05:03:12;8.88;;;5.53;;
46439;SDS011;32138;50.966;6.968;2023-09-07T05:04:43;7.95;;;5.90;;
46439;SDS011;32138;50.966;6.968;2023-09-07T05:06:14;6.15;;;4.90;;
46439;SDS011;32138;50.966;6.968;2023-09-07T05:07:45;9.40;;;5.40;;
46439;SDS011;32138;50.966;6.968;2023-09-07T05:09:16;8.85;;;5.78;;
46439;SDS011;32138;50.966;6.968;2023-09-07T05:10:47;6.60;;;5.03;;
46439;SDS011;32138;50.966;6.968;2023-09-07T05:12:18;10.73;;;6.43;;
46439;SDS011;32138;50.966;6.968;2023-09-07T05:13:49;9.68;;;5.20;;
46439;SDS011;32138;50.966;6.968;2023-09-07T05:15:20;15.55;;;8.90;;
46439;SDS011;32138;50.966;6.968;2023-09-07T05:16:51;12.18;;;6.07;;
46439;SDS011;32138;50.966;6.968;2023-09-07T05:18:22;8.43;;;5.50;;
46439;SDS011;32138;50.966;6.968;2023-09-07T05:19:53;9.45;;;5.10;;
46439;SDS011;32138;50.966;6.968;2023-09-07T05:21:24;8.10;;;5.43;;
46439;SDS011;32138;50.966;6.968;2023-09-07T05:22:54;9.80;;;5.63;;
46439;SDS011;32138;50.966;6.968;2023-09-07T05:24:26;8.60;;;5.53;;
46439;SDS011;32138;50.966;6.968;2023-09-07T05:25:57;8.75;;;5.57;;
46439;SDS011;32138;50.966;6.968;2023-09-07T05:27:28;9.68;;;5.78;;
46439;SDS011;32138;50.966;6.968;2023-09-07T05:28:59;10.23;;;5.38;;
46439;SDS011;32138;50.966;6.968;2023-09-07T05:30:30;8.30;;;5.50;;
46439;SDS011;32138;50.966;6.968;2023-09-07T05:32:00;13.45;;;4.97;;
46439;SDS011;32138;50.966;6.968;2023-09-07T05:33:31;8.82;;;6.30;;
46439;SDS011;32138;50.966;6.968;2023-09-07T05:35:02;8.02;;;6.15;;
46439;SDS011;32138;50.966;6.968;2023-09-07T05:36:33;8.07;;;5.95;;
46439;SDS011;32138;50.966;6.968;2023-09-07T05:38:04;9.98;;;6.13;;
46439;SDS011;32138;50.966;6.968;2023-09-07T05:39:35;15.43;;;6.43;;
46439;SDS011;32138;50.966;6.968;2023-09-07T05:41:06;11.43;;;5.75;;
46439;SDS011;32138;50.966;6.968;2023-09-07T05:42:37;13.43;;;5.75;;
46439;SDS011;32138;50.966;6.968;2023-09-07T05:44:08;14.77;;;6.10;;
46439;SDS011;32138;50.966;6.968;2023-09-07T05:45:39;11.45;;;5.72;;
46439;SDS011;32138;50.966;6.968;2023-09-07T05:47:11;9.05;;;5.88;;
46439;SDS011;32138;50.966;6.968;2023-09-07T05:48:42;8.80;;;5.30;;
46439;SDS011;32138;50.966;6.968;2023-09-07T05:50:12;13.32;;;6.63;;
46439;SDS011;32138;50.966;6.968;2023-09-07T05:51:43;9.85;;;5.22;;
46439;SDS011;32138;50.966;6.968;2023-09-07T05:53:14;14.18;;;6.63;;
46439;SDS011;32138;50.966;6.968;2023-09-07T05:54:45;15.88;;;7.85;;
46439;SDS011;32138;50.966;6.968;2023-09-07T05:56:15;12.65;;;6.40;;
46439;SDS011;32138;50.966;6.968;2023-09-07T05:57:46;15.48;;;6.53;;
46439;SDS011;32138;50.966;6.968;2023-09-07T05:59:18;23.20;;;8.07;;
46439;SDS011;32138;50.966;6.968;2023-09-07T06:00:49;12.75;;;7.60;;
46439;SDS011;32138;50.966;6.968;2023-09-07T06:02:20;16.35;;;7.00;;
46439;SDS011;32138;50.966;6.968;2023-09-07T06:03:51;11.88;;;6.05;;
46439;SDS011;32138;50.966;6.968;2023-09-07T06:05:21;15.85;;;7.78;;
46439;SDS011;32138;50.966;6.968;2023-09-07T06:06:52;13.43;;;6.03;;
46439;SDS011;32138;50.966;6.968;2023-09-07T06:08:23;13.00;;;6.50;;
46439;SDS011;32138;50.966;6.968;2023-09-07T06:09:54;24.42;;;7.00;;
46439;SDS011;32138;50.966;6.968;2023-09-07T06:11:25;12.30;;;6.75;;
46439;SDS011;32138;50.966;6.968;2023-09-07T06:12:56;11.73;;;6.07;;
46439;SDS011;32138;50.966;6.968;2023-09-07T06:14:27;10.10;;;5.53;;
46439;SDS011;32138;50.966;6.968;2023-09-07T06:15:58;10.85;;;6.10;;
46439;SDS011;32138;50.966;6.968;2023-09-07T06:17:30;14.00;;;6.03;;
46439;SDS011;32138;50.966;6.968;2023-09-07T06:19:01;12.77;;;6.30;;
46439;SDS011;32138;50.966;6.968;2023-09-07T06:20:32;14.50;;;6.13;;
46439;SDS011;32138;50.966;6.968;2023-09-07T06:22:02;10.23;;;5.95;;
46439;SDS011;32138;50.966;6.968;2023-09-07T06:23:34;11.20;;;5.70;;
46439;SDS011;32138;50.966;6.968;2023-09-07T06:25:04;12.10;;;5.45;;
46439;SDS011;32138;50.966;6.968;2023-09-07T06:26:35;8.90;;;6.15;;
46439;SDS011;32138;50.966;6.968;2023-09-07T06:28:06;14.07;;;5.80;;
46439;SDS011;32138;50.966;6.968;2023-09-07T06:29:37;10.60;;;7.05;;
46439;SDS011;32138;50.966;6.968;2023-09-07T06:31:07;11.35;;;5.55;;
46439;SDS011;32138;50.966;6.968;2023-09-07T06:32:38;13.00;;;5.80;;
46439;SDS011;32138;50.966;6.968;2023-09-07T06:34:10;11.57;;;6.72;;
46439;SDS011;32138;50.966;6.968;2023-09-07T06:35:40;9.85;;;5.05;;
46439;SDS011;32138;50.966;6.968;2023-09-07T06:37:11;9.73;;;6.07;;
46439;SDS011;32138;50.966;6.968;2023-09-07T06:38:42;10.10;;;5.57;;
46439;SDS011;32138;50.966;6.968;2023-09-07T06:40:13;10.30;;;5.75;;
46439;SDS011;32138;50.966;6.968;2023-09-07T06:41:45;11.23;;;6.82;;
46439;SDS011;32138;50.966;6.968;2023-09-07T06:43:17;11.45;;;5.82;;
46439;SDS011;32138;50.966;6.968;2023-09-07T06:44:47;7.80;;;4.40;;
46439;SDS011;32138;50.966;6.968;2023-09-07T06:46:18;7.57;;;4.72;;
46439;SDS011;32138;50.966;6.968;2023-09-07T06:47:49;11.27;;;6.28;;
46439;SDS011;32138;50.966;6.968;2023-09-07T06:49:21;8.32;;;5.35;;
46439;SDS011;32138;50.966;6.968;2023-09-07T06:50:52;10.65;;;5.47;;
46439;SDS011;32138;50.966;6.968;2023-09-07T06:52:23;11.32;;;5.72;;
46439;SDS011;32138;50.966;6.968;2023-09-07T06:53:53;9.43;;;5.50;;
46439;SDS011;32138;50.966;6.968;2023-09-07T06:55:24;11.65;;;6.00;;
46439;SDS011;32138;50.966;6.968;2023-09-07T06:56:55;8.68;;;4.75;;
46439;SDS011;32138;50.966;6.968;2023-09-07T06:58:26;10.80;;;5.50;;
46439;SDS011;32138;50.966;6.968;2023-09-07T06:59:57;10.18;;;4.93;;
46439;SDS011;32138;50.966;6.968;2023-09-07T07:01:28;15.63;;;5.43;;
46439;SDS011;32138;50.966;6.968;2023-09-07T07:02:58;8.73;;;4.47;;
46439;SDS011;32138;50.966;6.968;2023-09-07T07:04:29;7.72;;;4.97;;
46439;SDS011;32138;50.966;6.968;2023-09-07T07:06:00;9.77;;;5.82;;
46439;SDS011;32138;50.966;6.968;2023-09-07T07:07:31;13.82;;;5.90;;
46439;SDS011;32138;50.966;6.968;2023-09-07T07:09:03;9.77;;;5.22;;
46439;SDS011;32138;50.966;6.968;2023-09-07T07:10:34;12.55;;;5.03;;
46439;SDS011;32138;50.966;6.968;2023-09-07T07:12:04;10.40;;;5.72;;
46439;SDS011;32138;50.966;6.968;2023-09-07T07:13:35;7.95;;;5.60;;
46439;SDS011;32138;50.966;6.968;2023-09-07T07:15:07;12.68;;;5.07;;
46439;SDS011;32138;50.966;6.968;2023-09-07T07:16:38;9.85;;;4.75;;
46439;SDS011;32138;50.966;6.968;2023-09-07T07:18:09;8.25;;;4.97;;
46439;SDS011;32138;50.966;6.968;2023-09-07T07:19:39;8.32;;;5.22;;
46439;SDS011;32138;50.966;6.968;2023-09-07T07:21:11;10.45;;;5.97;;
46439;SDS011;32138;50.966;6.968;2023-09-07T07:22:42;12.18;;;5.65;;
46439;SDS011;32138;50.966;6.968;2023-09-07T07:24:12;11.70;;;5.72;;
46439;SDS011;32138;50.966;6.968;2023-09-07T07:25:44;11.98;;;5.57;;
46439;SDS011;32138;50.966;6.968;2023-09-07T07:27:15;8.65;;;5.30;;
46439;SDS011;32138;50.966;6.968;2023-09-07T07:28:46;8.90;;;4.72;;
46439;SDS011;32138;50.966;6.968;2023-09-07T07:30:16;12.85;;;5.53;;
46439;SDS011;32138;50.966;6.968;2023-09-07T07:31:47;9.35;;;5.40;;
46439;SDS011;32138;50.966;6.968;2023-09-07T07:33:18;7.93;;;5.25;;
46439;SDS011;32138;50.966;6.968;2023-09-07T07:34:49;8.10;;;5.18;;
46439;SDS011;32138;50.966;6.968;2023-09-07T07:36:20;9.95;;;5.28;;
46439;SDS011;32138;50.966;6.968;2023-09-07T07:37:51;12.05;;;4.95;;
46439;SDS011;32138;50.966;6.968;2023-09-07T07:39:22;7.32;;;4.65;;
46439;SDS011;32138;50.966;6.968;2023-09-07T07:40:52;8.63;;;4.45;;
46439;SDS011;32138;50.966;6.968;2023-09-07T07:42:23;8.75;;;5.72;;
46439;SDS011;32138;50.966;6.968;2023-09-07T07:43:54;8.20;;;4.97;;
46439;SDS011;32138;50.966;6.968;2023-09-07T07:45:25;7.10;;;4.20;;
46439;SDS011;32138;50.966;6.968;2023-09-07T07:46:55;7.93;;;5.00;;
46439;SDS011;32138;50.966;6.968;2023-09-07T07:48:26;10.55;;;4.68;;
46439;SDS011;32138;50.966;6.968;2023-09-07T07:49:59;10.10;;;5.18;;
46439;SDS011;32138;50.966;6.968;2023-09-07T07:51:30;11.80;;;4.53;;
46439;SDS011;32138;50.966;6.968;2023-09-07T07:53:00;9.48;;;4.80;;
46439;SDS011;32138;50.966;6.968;2023-09-07T07:54:32;10.75;;;4.55;;
46439;SDS011;32138;50.966;6.968;2023-09-07T07:56:04;10.15;;;4.22;;
46439;SDS011;32138;50.966;6.968;2023-09-07T07:57:35;12.15;;;4.45;;
46439;SDS011;32138;50.966;6.968;2023-09-07T07:59:06;7.85;;;5.07;;
46439;SDS011;32138;50.966;6.968;2023-09-07T08:00:37;14.07;;;5.75;;
46439;SDS011;32138;50.966;6.968;2023-09-07T08:02:08;6.93;;;5.25;;
46439;SDS011;32138;50.966;6.968;2023-09-07T08:03:39;8.50;;;4.65;;
46439;SDS011;32138;50.966;6.968;2023-09-07T08:05:10;7.32;;;4.90;;
46439;SDS011;32138;50.966;6.968;2023-09-07T08:06:40;7.57;;;4.53;;
46439;SDS011;32138;50.966;6.968;2023-09-07T08:08:11;9.80;;;5.22;;
46439;SDS011;32138;50.966;6.968;2023-09-07T08:09:42;7.28;;;4.20;;
46439;SDS011;32138;50.966;6.968;2023-09-07T08:11:13;6.82;;;4.70;;
46439;SDS011;32138;50.966;6.968;2023-09-07T08:12:44;10.50;;;4.60;;
46439;SDS011;32138;50.966;6.968;2023-09-07T08:14:15;8.52;;;4.68;;
46439;SDS011;32138;50.966;6.968;2023-09-07T08:15:46;10.93;;;4.88;;
46439;SDS011;32138;50.966;6.968;2023-09-07T08:17:18;6.40;;;4.50;;
46439;SDS011;32138;50.966;6.968;2023-09-07T08:18:50;8.90;;;5.15;;
46439;SDS011;32138;50.966;6.968;2023-09-07T08:20:21;6.75;;;4.22;;
46439;SDS011;32138;50.966;6.968;2023-09-07T08:21:52;6.97;;;4.38;;
46439;SDS011;32138;50.966;6.968;2023-09-07T08:23:23;7.13;;;4.95;;
46439;SDS011;32138;50.966;6.968;2023-09-07T08:24:54;8.18;;;5.22;;
46439;SDS011;32138;50.966;6.968;2023-09-07T08:26:25;5.40;;;4.38;;
46439;SDS011;32138;50.966;6.968;2023-09-07T08:27:56;5.78;;;4.60;;
46439;SDS011;32138;50.966;6.968;2023-09-07T08:29:29;7.47;;;4.55;;
46439;SDS011;32138;50.966;6.968;2023-09-07T08:31:02;7.10;;;4.35;;
46439;SDS011;32138;50.966;6.968;2023-09-07T08:32:34;9.55;;;4.53;;
46439;SDS011;32138;50.966;6.968;2023-09-07T08:34:06;9.00;;;4.88;;
46439;SDS011;32138;50.966;6.968;2023-09-07T08:35:41;6.53;;;4.35;;
46439;SDS011;32138;50.966;6.968;2023-09-07T08:37:14;9.73;;;4.95;;
46439;SDS011;32138;50.966;6.968;2023-09-07T08:38:44;6.60;;;4.32;;
46439;SDS011;32138;50.966;6.968;2023-09-07T08:40:16;7.78;;;4.38;;
46439;SDS011;32138;50.966;6.968;2023-09-07T08:41:47;5.63;;;4.40;;
46439;SDS011;32138;50.966;6.968;2023-09-07T08:43:18;7.20;;;4.53;;
46439;SDS011;32138;50.966;6.968;2023-09-07T08:44:50;7.57;;;4.47;;
46439;SDS011;32138;50.966;6.968;2023-09-07T08:46:23;5.03;;;4.05;;
46439;SDS011;32138;50.966;6.968;2023-09-07T08:47:55;6.15;;;4.50;;
46439;SDS011;32138;50.966;6.968;2023-09-07T08:49:27;7.97;;;4.07;;
46439;SDS011;32138;50.966;6.968;2023-09-07T08:50:58;6.93;;;4.18;;
46439;SDS011;32138;50.966;6.968;2023-09-07T08:52:29;7.88;;;4.53;;
46439;SDS011;32138;50.966;6.968;2023-09-07T08:54:00;7.40;;;4.03;;
46439;SDS011;32138;50.966;6.968;2023-09-07T08:55:31;6.40;;;4.65;;
46439;SDS011;32138;50.966;6.968;2023-09-07T08:57:03;6.03;;;3.90;;
46439;SDS011;32138;50.966;6.968;2023-09-07T08:58:36;5.88;;;4.45;;
46439;SDS011;32138;50.966;6.968;2023-09-07T09:00:07;6.78;;;3.95;;
46439;SDS011;32138;50.966;6.968;2023-09-07T09:01:43;8.60;;;4.85;;
46439;SDS011;32138;50.966;6.968;2023-09-07T09:03:14;5.47;;;4.50;;
46439;SDS011;32138;50.966;6.968;2023-09-07T09:04:45;9.25;;;4.53;;
46439;SDS011;32138;50.966;6.968;2023-09-07T09:06:19;7.22;;;4.13;;
46439;SDS011;32138;50.966;6.968;2023-09-07T09:08:00;6.45;;;4.25;;
46439;SDS011;32138;50.966;6.968;2023-09-07T09:09:34;5.15;;;4.00;;